createdAt,value
2017-10-26T00:00:18.105Z,17.17
2017-10-26T00:02:46.406Z,17.50
2017-10-26T00:05:13.914Z,18.10
2017-10-26T00:07:41.420Z,18.93
2017-10-26T00:10:08.961Z,18.77
2017-10-26T00:12:37.240Z,18.10
2017-10-26T00:15:04.790Z,18.93
2017-10-26T00:17:33.106Z,22.60
2017-10-26T00:20:00.614Z,18.57
2017-10-26T00:22:28.158Z,21.97
2017-10-26T00:24:55.673Z,18.67
2017-10-26T00:27:23.588Z,17.93
2017-10-26T00:29:51.097Z,18.83
2017-10-26T00:32:18.639Z,20.77
2017-10-26T00:34:46.180Z,19.47
2017-10-26T00:37:14.467Z,21.80
2017-10-26T00:39:42.019Z,22.80
2017-10-26T00:42:10.314Z,25.03
2017-10-26T00:44:37.844Z,28.63
2017-10-26T00:47:05.382Z,22.97
2017-10-26T00:49:33.272Z,25.30
2017-10-26T00:52:00.786Z,24.50
2017-10-26T00:54:28.308Z,27.63
2017-10-26T00:56:56.626Z,26.60
2017-10-26T00:59:24.137Z,25.93
2017-10-26T01:01:52.456Z,31.73
2017-10-26T01:04:19.998Z,31.23
2017-10-26T01:06:47.546Z,44.70
2017-10-26T01:09:15.063Z,39.23
2017-10-26T01:11:42.616Z,45.20
2017-10-26T01:14:10.153Z,43.73
2017-10-26T01:16:37.665Z,39.87
2017-10-26T01:19:05.994Z,39.73
2017-10-26T01:21:33.545Z,36.53
2017-10-26T01:24:01.041Z,39.97
2017-10-26T01:26:28.569Z,49.03
2017-10-26T01:28:56.116Z,58.60
2017-10-26T01:31:23.658Z,54.13
2017-10-26T01:33:51.200Z,52.43
2017-10-26T01:36:18.728Z,53.37
2017-10-26T01:38:46.220Z,43.07
2017-10-26T01:41:14.545Z,47.37
2017-10-26T01:43:42.114Z,52.57
2017-10-26T01:46:09.624Z,58.30
2017-10-26T01:48:38.141Z,70.27
2017-10-26T01:51:05.664Z,54.60
2017-10-26T01:53:33.969Z,70.13
2017-10-26T01:56:01.536Z,67.30
2017-10-26T01:58:29.044Z,47.97
2017-10-26T02:00:57.055Z,47.60
2017-10-26T02:03:24.614Z,47.20
2017-10-26T02:05:52.117Z,49.37
2017-10-26T02:08:19.643Z,47.53
2017-10-26T02:10:47.223Z,37.10
2017-10-26T02:13:15.091Z,41.73
2017-10-26T02:15:42.646Z,40.00
2017-10-26T02:18:10.205Z,45.83
2017-10-26T02:20:37.708Z,57.30
2017-10-26T02:23:05.980Z,64.03
2017-10-26T02:25:33.539Z,59.83
2017-10-26T02:28:01.841Z,78.07
2017-10-26T02:30:41.192Z,73.47
2017-10-26T02:33:08.715Z,74.50
2017-10-26T02:35:36.258Z,61.93
2017-10-26T02:38:03.773Z,66.23
2017-10-26T02:40:31.321Z,61.37
2017-10-26T02:42:58.826Z,51.23
2017-10-26T02:45:26.338Z,42.57
2017-10-26T02:47:53.894Z,37.90
2017-10-26T02:50:21.394Z,35.70
2017-10-26T02:52:48.927Z,42.53
2017-10-26T02:55:16.469Z,47.13
2017-10-26T02:57:43.997Z,38.73
2017-10-26T03:00:11.551Z,36.07
2017-10-26T03:02:39.832Z,33.80
2017-10-26T03:05:08.124Z,33.70
2017-10-26T03:07:35.664Z,34.67
2017-10-26T03:10:03.207Z,27.73
2017-10-26T03:12:30.757Z,33.90
2017-10-26T03:14:58.266Z,35.10
2017-10-26T03:17:25.856Z,44.97
2017-10-26T03:19:53.371Z,36.30
2017-10-26T03:22:21.648Z,31.00
2017-10-26T03:24:49.182Z,31.03
2017-10-26T03:27:17.463Z,28.87
2017-10-26T03:29:45.754Z,24.27
2017-10-26T03:32:14.092Z,24.23
2017-10-26T03:34:41.615Z,26.17
2017-10-26T03:37:09.158Z,29.83
2017-10-26T03:39:36.667Z,31.67
2017-10-26T03:42:04.213Z,29.33
2017-10-26T03:44:31.727Z,33.47
2017-10-26T03:47:00.074Z,30.43
2017-10-26T03:49:27.587Z,29.60
2017-10-26T03:51:55.121Z,36.57
2017-10-26T03:54:22.659Z,44.83
2017-10-26T03:56:50.936Z,39.83
2017-10-26T03:59:18.478Z,51.80
2017-10-26T04:01:45.994Z,51.57
2017-10-26T04:04:13.493Z,54.63
2017-10-26T04:06:41.038Z,67.37
2017-10-26T04:09:08.542Z,50.10
2017-10-26T04:11:36.075Z,47.60
2017-10-26T04:14:03.586Z,55.87
2017-10-26T04:16:31.095Z,40.33
2017-10-26T04:18:58.624Z,42.87
2017-10-26T04:21:26.144Z,48.17
2017-10-26T04:23:53.656Z,61.70
2017-10-26T04:26:21.198Z,56.30
2017-10-26T04:28:48.715Z,61.50
2017-10-26T04:31:17.030Z,48.63
2017-10-26T04:33:44.614Z,60.57
2017-10-26T04:36:12.161Z,79.87
2017-10-26T04:38:39.688Z,78.80
2017-10-26T04:41:07.198Z,138.03
2017-10-26T04:43:34.748Z,89.03
2017-10-26T04:46:02.289Z,107.37
2017-10-26T04:48:29.797Z,120.20
2017-10-26T04:50:58.113Z,91.30
2017-10-26T04:53:25.615Z,244.73
2017-10-26T04:55:53.157Z,312.73
2017-10-26T04:58:20.697Z,392.03
2017-10-26T05:00:48.210Z,501.23
2017-10-26T05:03:15.736Z,321.67
2017-10-26T05:05:43.270Z,461.17
2017-10-26T05:08:10.786Z,426.20
2017-10-26T05:10:39.061Z,299.43
2017-10-26T05:13:06.570Z,402.57
2017-10-26T05:15:34.111Z,220.83
2017-10-26T05:18:01.625Z,85.13
2017-10-26T05:20:29.181Z,179.47
2017-10-26T05:22:56.684Z,371.23
2017-10-26T05:25:24.774Z,205.23
2017-10-26T05:27:52.280Z,82.83
2017-10-26T05:30:20.621Z,80.00
2017-10-26T05:32:48.131Z,62.70
2017-10-26T05:35:15.657Z,62.63
2017-10-26T05:37:43.203Z,56.40
2017-10-26T05:40:10.939Z,53.17
2017-10-26T05:42:38.516Z,39.47
2017-10-26T05:45:06.031Z,40.47
2017-10-26T05:47:33.611Z,45.10
2017-10-26T05:50:01.158Z,42.67
2017-10-26T05:52:28.716Z,50.83
2017-10-26T05:54:56.219Z,51.37
2017-10-26T05:57:23.781Z,41.00
2017-10-26T05:59:51.310Z,36.63
2017-10-26T06:02:18.837Z,33.53
2017-10-26T06:04:46.348Z,30.70
2017-10-26T06:07:13.893Z,40.27
2017-10-26T06:09:42.192Z,35.47
2017-10-26T06:12:09.831Z,38.80
2017-10-26T06:14:37.376Z,36.13
2017-10-26T06:17:04.882Z,42.00
2017-10-26T06:19:32.389Z,26.20
2017-10-26T06:21:59.928Z,35.47
2017-10-26T06:24:27.450Z,35.33
2017-10-26T06:26:54.969Z,46.97
2017-10-26T06:29:22.525Z,49.23
2017-10-26T06:31:50.031Z,43.80
2017-10-26T06:34:17.576Z,39.80
2017-10-26T06:36:45.082Z,26.70
2017-10-26T06:39:12.611Z,24.27
2017-10-26T06:41:40.222Z,29.60
2017-10-26T06:44:07.733Z,24.80
2017-10-26T06:46:35.248Z,23.50
2017-10-26T06:49:02.816Z,27.20
2017-10-26T06:51:31.088Z,26.40
2017-10-26T06:53:58.596Z,22.20
2017-10-26T06:56:26.171Z,22.40
2017-10-26T06:58:53.680Z,21.80
2017-10-26T07:01:21.195Z,22.93
2017-10-26T07:03:48.732Z,22.77
2017-10-26T07:06:16.719Z,19.83
2017-10-26T07:08:44.222Z,23.70
2017-10-26T07:11:11.720Z,25.10
2017-10-26T07:13:39.305Z,23.63
2017-10-26T07:16:06.816Z,27.83
2017-10-26T07:18:34.355Z,23.50
2017-10-26T07:21:01.865Z,26.37
2017-10-26T07:23:29.454Z,25.30
2017-10-26T07:25:56.997Z,25.40
2017-10-26T07:28:24.514Z,27.20
2017-10-26T07:30:52.058Z,35.80
2017-10-26T07:33:19.575Z,44.13
2017-10-26T07:35:47.166Z,46.27
2017-10-26T07:38:14.677Z,34.10
2017-10-26T07:40:42.221Z,38.50
2017-10-26T07:43:09.793Z,66.63
2017-10-26T07:45:37.309Z,97.90
2017-10-26T07:48:05.684Z,120.30
2017-10-26T07:50:33.242Z,89.53
2017-10-26T07:53:01.527Z,104.97
2017-10-26T07:55:29.071Z,93.57
2017-10-26T07:57:57.432Z,172.10
2017-10-26T08:00:25.029Z,166.63
2017-10-26T08:02:52.554Z,162.67
2017-10-26T08:05:20.134Z,186.67
2017-10-26T08:07:47.682Z,190.90
2017-10-26T08:10:16.029Z,190.43
2017-10-26T08:12:43.602Z,284.63
2017-10-26T08:15:11.118Z,235.03
2017-10-26T08:17:38.669Z,338.57
2017-10-26T08:20:06.225Z,270.77
2017-10-26T08:22:33.737Z,120.93
2017-10-26T08:25:01.238Z,235.37
2017-10-26T08:27:28.783Z,195.23
2017-10-26T08:29:56.313Z,119.27
2017-10-26T08:32:23.867Z,371.87
2017-10-26T08:34:51.455Z,164.30
2017-10-26T08:37:18.990Z,392.60
2017-10-26T08:39:46.560Z,176.40
2017-10-26T08:42:14.217Z,284.23
2017-10-26T08:44:41.776Z,158.30
2017-10-26T08:47:09.309Z,70.03
2017-10-26T08:49:36.880Z,104.27
2017-10-26T08:52:04.449Z,122.97
2017-10-26T08:54:31.996Z,75.23
2017-10-26T08:56:59.520Z,85.67
2017-10-26T08:59:27.084Z,53.83
2017-10-26T09:01:54.674Z,154.97
2017-10-26T09:04:22.196Z,291.80
2017-10-26T09:06:49.766Z,112.67
2017-10-26T09:09:17.341Z,96.20
2017-10-26T09:11:44.853Z,52.10
2017-10-26T09:14:12.412Z,50.93
2017-10-26T09:16:40.828Z,36.30
2017-10-26T09:19:08.344Z,60.17
2017-10-26T09:21:36.687Z,37.93
2017-10-26T09:24:04.223Z,80.27
2017-10-26T09:26:31.783Z,47.30
2017-10-26T09:28:59.303Z,63.37
2017-10-26T09:31:27.623Z,59.03
2017-10-26T09:33:55.177Z,71.27
2017-10-26T09:36:22.717Z,38.40
2017-10-26T09:38:50.281Z,55.70
2017-10-26T09:41:17.797Z,40.13
2017-10-26T09:43:45.393Z,34.03
2017-10-26T09:46:12.937Z,35.37
2017-10-26T09:48:41.237Z,28.63
2017-10-26T09:51:08.784Z,28.97
2017-10-26T09:53:36.363Z,27.03
2017-10-26T09:56:03.889Z,47.70
2017-10-26T09:58:31.394Z,34.57
2017-10-26T10:00:58.958Z,29.70
2017-10-26T10:03:26.501Z,35.27
2017-10-26T10:05:54.057Z,26.10
2017-10-26T10:08:21.581Z,28.50
2017-10-26T10:10:49.128Z,24.77
2017-10-26T10:13:16.660Z,25.27
2017-10-26T10:15:44.277Z,25.80
2017-10-26T10:18:12.136Z,25.80
2017-10-26T10:20:40.493Z,20.47
2017-10-26T10:23:08.869Z,24.37
2017-10-26T10:25:36.393Z,21.60
2017-10-26T10:28:03.975Z,20.63
2017-10-26T10:30:31.475Z,20.47
2017-10-26T10:32:59.012Z,21.40
2017-10-26T10:35:27.573Z,25.27
2017-10-26T10:37:55.081Z,24.60
2017-10-26T10:40:22.616Z,18.20
2017-10-26T10:42:50.929Z,22.70
2017-10-26T10:45:18.507Z,19.20
2017-10-26T10:47:46.071Z,18.83
2017-10-26T10:50:13.576Z,19.33
2017-10-26T10:52:41.897Z,12.93
2017-10-26T10:55:09.470Z,11.37
2017-10-26T10:57:36.965Z,12.27
2017-10-26T11:00:11.009Z,11.20
2017-10-26T11:02:38.546Z,13.40
2017-10-26T11:05:06.137Z,12.53
2017-10-26T11:07:33.695Z,10.90
2017-10-26T11:10:01.213Z,10.10
2017-10-26T11:12:28.745Z,12.97
2017-10-26T11:14:56.277Z,11.30
2017-10-26T11:17:23.822Z,11.50
2017-10-26T11:19:51.324Z,12.70
2017-10-26T11:22:18.845Z,11.37
2017-10-26T11:24:46.406Z,12.90
2017-10-26T11:27:13.936Z,10.57
2017-10-26T11:29:41.440Z,11.20
2017-10-26T11:32:08.999Z,10.27
2017-10-26T11:34:36.509Z,10.63
2017-10-26T11:37:04.076Z,11.30
2017-10-26T11:39:32.348Z,10.53
2017-10-26T11:42:00.644Z,11.93
2017-10-26T11:44:28.183Z,11.53
2017-10-26T11:46:55.720Z,13.33
2017-10-26T11:49:23.249Z,13.03
2017-10-26T11:51:50.807Z,13.07
2017-10-26T11:54:18.313Z,13.50
2017-10-26T11:56:45.932Z,13.57
2017-10-26T11:59:13.453Z,12.93
2017-10-26T12:01:40.963Z,11.73
2017-10-26T12:04:08.504Z,12.97
2017-10-26T12:06:36.088Z,12.77
2017-10-26T12:09:03.596Z,12.93
2017-10-26T12:11:31.110Z,15.40
2017-10-26T12:13:58.640Z,12.90
2017-10-26T12:16:26.143Z,12.50
2017-10-26T12:18:53.681Z,13.50
2017-10-26T12:21:21.205Z,12.87
2017-10-26T12:23:48.761Z,12.60
2017-10-26T12:26:16.301Z,13.57
2017-10-26T12:28:43.815Z,12.17
2017-10-26T12:31:11.388Z,12.93
2017-10-26T12:33:38.915Z,15.90
2017-10-26T12:36:06.416Z,12.63
2017-10-26T12:38:33.984Z,14.03
2017-10-26T12:41:02.298Z,11.90
2017-10-26T12:43:29.800Z,12.00
2017-10-26T12:45:57.343Z,12.70
2017-10-26T12:48:25.177Z,12.30
2017-10-26T12:50:53.468Z,11.60
2017-10-26T12:53:21.026Z,12.03
2017-10-26T12:55:48.590Z,12.67
2017-10-26T12:58:16.144Z,14.03
2017-10-26T13:00:43.647Z,11.70
2017-10-26T13:03:11.922Z,11.63
2017-10-26T13:05:40.234Z,10.90
2017-10-26T13:08:07.790Z,10.17
2017-10-26T13:10:35.294Z,11.13
2017-10-26T13:13:02.836Z,10.80
2017-10-26T13:15:31.080Z,10.30
2017-10-26T13:20:59.397Z,10.47
2017-10-26T13:23:27.328Z,8.67
2017-10-26T13:25:55.323Z,9.23
2017-10-26T13:28:23.249Z,9.17
2017-10-26T13:30:51.750Z,10.57
2017-10-26T13:33:19.665Z,10.70
2017-10-26T13:35:47.651Z,9.00
2017-10-26T13:38:15.357Z,9.67
2017-10-26T13:40:44.038Z,9.10
2017-10-26T13:43:13.222Z,8.80
2017-10-26T13:45:41.647Z,9.27
2017-10-26T13:48:09.461Z,8.63
2017-10-26T13:55:44.025Z,6.60
2017-10-26T13:58:14.477Z,6.97
2017-10-26T14:03:16.917Z,6.83
2017-10-26T14:05:46.932Z,7.10
2017-10-26T14:08:14.695Z,6.30
2017-10-26T14:10:42.492Z,7.37
2017-10-26T14:13:10.095Z,7.23
2017-10-26T14:15:38.191Z,11.80
2017-10-26T14:18:05.845Z,9.10
2017-10-26T14:20:34.224Z,8.70
2017-10-26T14:23:02.140Z,9.33
2017-10-26T14:25:31.067Z,8.30
2017-10-26T14:27:59.025Z,10.23
2017-10-26T14:30:27.150Z,8.77
2017-10-26T14:32:55.102Z,7.13
2017-10-26T14:35:23.327Z,6.03
2017-10-26T14:37:51.356Z,6.90
2017-10-26T14:40:19.926Z,5.50
2017-10-26T14:42:48.633Z,7.63
2017-10-26T14:45:16.275Z,6.80
2017-10-26T14:47:44.376Z,8.00
2017-10-26T14:50:12.359Z,12.10
2017-10-26T14:52:40.817Z,10.10
2017-10-26T14:55:08.789Z,11.43
2017-10-26T14:57:36.746Z,9.50
2017-10-26T15:00:05.374Z,9.63
2017-10-26T15:02:34.037Z,10.20
2017-10-26T15:05:02.132Z,10.87
2017-10-26T15:07:29.849Z,10.03
2017-10-26T15:09:57.727Z,11.40
2017-10-26T15:12:25.565Z,15.20
2017-10-26T15:14:53.653Z,9.60
2017-10-26T15:17:21.379Z,10.03
2017-10-26T15:19:49.253Z,10.33
2017-10-26T15:22:18.347Z,15.00
2017-10-26T15:24:47.220Z,10.67
2017-10-26T15:27:15.964Z,10.13
2017-10-26T15:29:44.037Z,11.03
2017-10-26T15:32:11.866Z,12.80
2017-10-26T15:34:40.475Z,11.20
2017-10-26T15:37:08.520Z,10.20
2017-10-26T15:39:37.787Z,9.53
2017-10-26T15:42:05.917Z,11.20
2017-10-26T15:44:33.640Z,9.80
2017-10-26T15:47:01.375Z,9.77
2017-10-26T15:49:30.167Z,9.93
2017-10-26T15:51:57.885Z,8.80
2017-10-26T15:54:26.217Z,10.30
2017-10-26T15:56:54.126Z,11.00
2017-10-26T15:59:21.958Z,11.90
2017-10-26T16:01:50.113Z,12.53
2017-10-26T16:04:17.945Z,12.10
2017-10-26T16:06:45.763Z,15.00
2017-10-26T16:09:13.419Z,11.93
2017-10-26T16:11:41.093Z,12.53
2017-10-26T16:14:09.126Z,13.83
2017-10-26T16:16:37.747Z,13.13
2017-10-26T16:19:05.492Z,12.90
2017-10-26T16:21:33.417Z,13.63
2017-10-26T16:24:01.686Z,11.60
2017-10-26T16:26:29.825Z,12.33
2017-10-26T16:28:57.608Z,12.40
2017-10-26T16:31:26.359Z,16.30
2017-10-26T16:33:54.402Z,11.20
2017-10-26T16:36:22.254Z,14.67
2017-10-26T16:38:49.919Z,13.73
2017-10-26T16:41:18.147Z,12.87
2017-10-26T16:43:46.481Z,12.97
2017-10-26T16:46:15.755Z,13.70
2017-10-26T16:48:43.550Z,20.00
2017-10-26T16:51:11.311Z,19.73
2017-10-26T16:53:39.426Z,16.07
2017-10-26T16:56:08.324Z,15.53
2017-10-26T16:58:36.408Z,18.33
2017-10-26T17:01:04.122Z,15.17
2017-10-26T17:03:32.311Z,22.97
2017-10-26T17:06:00.125Z,14.93
2017-10-26T17:08:27.902Z,19.80
2017-10-26T17:10:56.379Z,15.87
2017-10-26T17:13:24.474Z,17.27
2017-10-26T17:15:52.810Z,16.17
2017-10-26T17:18:20.556Z,18.70
2017-10-26T17:20:48.320Z,17.40
2017-10-26T17:23:16.345Z,18.73
2017-10-26T17:25:44.138Z,18.40
2017-10-26T17:28:12.026Z,16.20
2017-10-26T17:30:39.995Z,18.10
2017-10-26T17:33:07.746Z,21.03
2017-10-26T17:35:35.615Z,22.20
2017-10-26T17:38:03.388Z,23.50
2017-10-26T17:40:31.486Z,19.43
2017-10-26T17:42:59.257Z,23.17
2017-10-26T17:45:26.974Z,21.60
2017-10-26T17:47:54.954Z,19.20
2017-10-26T17:50:22.816Z,19.87
2017-10-26T17:52:50.472Z,24.37
2017-10-26T17:55:18.694Z,19.93
2017-10-26T17:57:46.933Z,26.53
2017-10-26T18:00:14.955Z,17.30
2017-10-26T18:02:42.882Z,21.70
2017-10-26T18:05:10.830Z,19.27
2017-10-26T18:07:39.249Z,25.53
2017-10-26T18:10:07.231Z,25.60
2017-10-26T18:12:35.449Z,16.87
2017-10-26T18:15:03.846Z,19.40
2017-10-26T18:17:31.831Z,19.20
2017-10-26T18:19:59.787Z,16.37
2017-10-26T18:22:27.849Z,17.43
2017-10-26T18:24:56.518Z,20.87
2017-10-26T18:27:25.166Z,15.57
2017-10-26T18:29:53.351Z,18.83
2017-10-26T18:32:21.485Z,20.00
2017-10-26T18:34:49.908Z,20.10
2017-10-26T18:37:17.951Z,28.40
2017-10-26T18:39:45.658Z,26.63
2017-10-26T18:42:14.164Z,22.20
2017-10-26T18:44:42.543Z,20.20
2017-10-26T18:47:10.281Z,18.87
2017-10-26T18:49:38.332Z,19.37
2017-10-26T18:52:06.215Z,25.40
2017-10-26T18:54:34.320Z,19.47
2017-10-26T18:57:02.014Z,25.90
2017-10-26T18:59:30.553Z,23.97
2017-10-26T19:01:58.868Z,24.20
2017-10-26T19:04:27.211Z,19.00
2017-10-26T19:06:54.865Z,20.23
2017-10-26T19:09:23.477Z,17.27
2017-10-26T19:11:51.809Z,18.13
2017-10-26T19:14:20.122Z,16.80
2017-10-26T19:16:48.065Z,22.07
2017-10-26T19:19:15.931Z,21.30
2017-10-26T19:21:44.991Z,17.33
2017-10-26T19:24:13.040Z,17.63
2017-10-26T19:26:41.125Z,18.30
2017-10-26T19:29:09.443Z,20.17
2017-10-26T19:31:38.253Z,18.13
2017-10-26T19:34:06.246Z,18.83
2017-10-26T19:36:34.408Z,18.40
2017-10-26T19:39:02.604Z,18.10
2017-10-26T19:41:30.558Z,16.43
2017-10-26T19:43:58.426Z,19.50
2017-10-26T19:46:26.474Z,24.83
2017-10-26T19:48:54.239Z,20.43
2017-10-26T19:51:22.259Z,19.27
2017-10-26T19:53:50.626Z,20.97
2017-10-26T19:56:19.452Z,25.80
2017-10-26T19:58:48.663Z,26.40
2017-10-26T20:01:17.962Z,24.00
2017-10-26T20:03:46.192Z,26.43
2017-10-26T20:06:13.976Z,23.20
2017-10-26T20:08:41.981Z,25.20
2017-10-26T20:11:09.842Z,23.10
2017-10-26T20:13:38.592Z,19.37
2017-10-26T20:16:07.244Z,24.67
2017-10-26T20:18:35.163Z,24.37
2017-10-26T20:21:03.968Z,31.03
2017-10-26T20:23:32.482Z,26.00
2017-10-26T20:26:00.633Z,28.63
2017-10-26T20:28:29.101Z,23.30
2017-10-26T20:30:57.751Z,22.00
2017-10-26T20:33:25.733Z,23.13
2017-10-26T20:35:53.468Z,26.17
2017-10-26T20:38:22.207Z,25.70
2017-10-26T20:40:51.146Z,26.43
2017-10-26T20:43:19.452Z,23.33
2017-10-26T20:45:47.088Z,22.60
2017-10-26T20:48:15.279Z,25.60
2017-10-26T20:50:43.231Z,23.93
2017-10-26T20:53:10.839Z,24.90
2017-10-26T20:55:39.081Z,23.27
2017-10-26T20:58:06.876Z,20.37
2017-10-26T21:00:35.385Z,22.17
2017-10-26T21:03:03.665Z,22.53
2017-10-26T21:05:31.534Z,26.60
2017-10-26T21:07:59.415Z,28.30
2017-10-26T21:10:27.604Z,24.83
2017-10-26T21:12:55.275Z,21.70
2017-10-26T21:15:23.511Z,20.50
2017-10-26T21:17:51.497Z,19.47
2017-10-26T21:20:19.499Z,21.13
2017-10-26T21:22:47.463Z,23.50
2017-10-26T21:25:15.624Z,21.30
2017-10-26T21:27:43.410Z,20.67
2017-10-26T21:30:11.336Z,19.03
2017-10-26T21:32:39.421Z,24.20
2017-10-26T21:35:07.528Z,20.63
2017-10-26T21:37:36.542Z,24.50
2017-10-26T21:40:05.359Z,21.23
2017-10-26T21:42:33.540Z,24.93
2017-10-26T21:45:01.843Z,22.67
2017-10-26T21:47:31.442Z,20.70
2017-10-26T21:49:59.862Z,25.33
2017-10-26T21:52:28.668Z,23.30
2017-10-26T21:54:57.001Z,23.37
2017-10-26T21:57:24.907Z,25.17
2017-10-26T21:59:52.998Z,25.33
2017-10-26T22:02:21.069Z,27.77
2017-10-26T22:04:48.815Z,23.93
2017-10-26T22:07:17.152Z,37.67
2017-10-26T22:09:45.007Z,31.97
2017-10-26T22:12:12.696Z,28.90
2017-10-26T22:14:41.756Z,29.10
2017-10-26T22:17:09.585Z,47.63
2017-10-26T22:19:37.690Z,45.87
2017-10-26T22:22:05.682Z,39.03
2017-10-26T22:24:34.587Z,33.23
2017-10-26T22:27:02.972Z,28.60
2017-10-26T22:29:31.748Z,25.47
2017-10-26T22:32:00.085Z,33.47
2017-10-26T22:34:27.979Z,27.20
2017-10-26T22:36:56.132Z,34.00
2017-10-26T22:39:23.916Z,26.93
2017-10-26T22:41:52.800Z,27.97
2017-10-26T22:44:20.720Z,31.00
2017-10-26T22:46:48.998Z,31.53
2017-10-26T22:49:17.196Z,26.90
2017-10-26T22:51:45.257Z,22.63
2017-10-26T22:54:13.051Z,33.07
2017-10-26T22:56:41.176Z,25.73
2017-10-26T22:59:09.479Z,48.23
2017-10-26T23:01:37.534Z,67.80
2017-10-26T23:04:05.442Z,76.23
2017-10-26T23:06:33.625Z,24.20
2017-10-26T23:09:01.488Z,35.87
2017-10-26T23:11:29.292Z,22.30
2017-10-26T23:13:57.580Z,22.40
2017-10-26T23:16:25.360Z,24.37
2017-10-26T23:18:53.872Z,22.40
2017-10-26T23:21:22.097Z,28.43
2017-10-26T23:23:50.242Z,27.60
2017-10-26T23:26:18.623Z,23.20
2017-10-26T23:28:47.524Z,21.90
2017-10-26T23:31:16.405Z,25.40
2017-10-26T23:33:44.253Z,27.13
2017-10-26T23:36:12.253Z,22.60
2017-10-26T23:38:40.177Z,21.33
2017-10-26T23:41:08.196Z,19.80
2017-10-26T23:43:36.862Z,19.33
2017-10-26T23:46:06.241Z,16.40
2017-10-26T23:48:34.502Z,17.87
2017-10-26T23:51:02.693Z,17.00
2017-10-26T23:53:30.684Z,17.20
2017-10-26T23:55:59.921Z,17.93
2017-10-26T23:58:27.712Z,19.70
